createdAt,value
2018-07-23T00:01:03.378Z,18.50
2018-07-23T00:03:31.525Z,18.50
2018-07-23T00:05:59.666Z,18.50
2018-07-23T00:08:27.749Z,18.40
2018-07-23T00:10:55.808Z,18.30
2018-07-23T00:13:24.034Z,18.30
2018-07-23T00:15:52.135Z,18.20
2018-07-23T00:18:20.233Z,18.20
2018-07-23T00:20:48.279Z,18.20
2018-07-23T00:25:44.331Z,18.10
2018-07-23T00:28:12.440Z,18.10
2018-07-23T00:30:40.532Z,18.10
2018-07-23T00:33:08.613Z,18.20
2018-07-23T00:35:36.782Z,18.10
2018-07-23T00:38:04.893Z,18.00
2018-07-23T00:40:33.019Z,18.00
2018-07-23T00:43:01.125Z,17.90
2018-07-23T00:45:29.247Z,17.90
2018-07-23T00:47:57.372Z,17.80
2018-07-23T00:50:25.477Z,17.80
2018-07-23T00:52:53.578Z,17.90
2018-07-23T00:55:21.709Z,17.90
2018-07-23T00:57:49.875Z,17.90
2018-07-23T01:02:45.983Z,17.90
2018-07-23T01:05:14.082Z,17.80
2018-07-23T01:07:42.266Z,17.80
2018-07-23T01:10:10.361Z,17.70
2018-07-23T01:12:38.481Z,17.70
2018-07-23T01:15:06.626Z,17.60
2018-07-23T01:17:34.718Z,17.60
2018-07-23T01:20:02.928Z,17.60
2018-07-23T01:22:31.029Z,17.70
2018-07-23T01:24:59.166Z,17.80
2018-07-23T01:27:27.290Z,17.80
2018-07-23T01:29:55.367Z,17.80
2018-07-23T01:32:23.442Z,17.70
2018-07-23T01:34:51.568Z,17.70
2018-07-23T01:37:19.674Z,17.70
2018-07-23T01:39:47.750Z,17.80
2018-07-23T01:42:15.878Z,17.70
2018-07-23T01:44:44.011Z,17.70
2018-07-23T01:47:12.132Z,17.80
2018-07-23T01:49:40.261Z,17.70
2018-07-23T01:52:08.353Z,17.60
2018-07-23T01:54:36.415Z,17.50
2018-07-23T01:57:04.555Z,17.50
2018-07-23T01:59:32.690Z,17.50
2018-07-23T02:02:00.790Z,17.50
2018-07-23T02:04:28.877Z,17.50
2018-07-23T02:06:56.988Z,17.50
2018-07-23T02:09:25.108Z,17.50
2018-07-23T02:11:53.149Z,17.40
2018-07-23T02:14:21.938Z,17.30
2018-07-23T02:16:50.056Z,17.30
2018-07-23T02:19:18.176Z,17.30
2018-07-23T02:21:46.275Z,17.30
2018-07-23T02:24:14.343Z,17.40
2018-07-23T02:29:10.313Z,17.30
2018-07-23T02:31:38.409Z,17.30
2018-07-23T02:34:06.508Z,17.30
2018-07-23T02:36:34.600Z,17.20
2018-07-23T02:39:02.881Z,17.20
2018-07-23T02:41:31.029Z,17.20
2018-07-23T02:43:59.119Z,17.20
2018-07-23T02:46:27.226Z,17.10
2018-07-23T02:48:56.018Z,17.10
2018-07-23T02:51:24.130Z,17.00
2018-07-23T02:53:52.178Z,17.00
2018-07-23T02:56:21.279Z,17.00
2018-07-23T02:58:49.444Z,17.00
2018-07-23T03:01:17.544Z,17.00
2018-07-23T03:03:45.638Z,17.00
2018-07-23T03:06:13.741Z,16.90
2018-07-23T03:08:41.844Z,16.90
2018-07-23T03:11:09.930Z,16.90
2018-07-23T03:13:38.078Z,16.90
2018-07-23T03:16:06.148Z,17.00
2018-07-23T03:18:34.216Z,17.00
2018-07-23T03:21:03.254Z,17.00
2018-07-23T03:25:59.255Z,17.00
2018-07-23T03:28:27.359Z,16.90
2018-07-23T03:30:55.468Z,16.90
2018-07-23T03:33:23.581Z,16.90
2018-07-23T03:35:51.700Z,16.90
2018-07-23T03:38:19.756Z,16.90
2018-07-23T03:40:47.858Z,17.00
2018-07-23T03:43:15.967Z,17.00
2018-07-23T03:45:44.111Z,17.00
2018-07-23T03:50:40.071Z,17.00
2018-07-23T03:53:08.208Z,17.00
2018-07-23T03:55:36.290Z,16.90
2018-07-23T03:58:04.387Z,16.90
2018-07-23T04:00:32.473Z,16.90
2018-07-23T04:03:00.531Z,16.90
2018-07-23T04:05:28.633Z,16.80
2018-07-23T04:07:56.700Z,16.70
2018-07-23T04:10:24.801Z,16.70
2018-07-23T04:12:53.164Z,16.70
2018-07-23T04:15:21.219Z,16.70
2018-07-23T04:18:06.173Z,16.70
2018-07-23T04:20:35.431Z,16.70
2018-07-23T04:23:04.493Z,16.70
2018-07-23T04:25:32.638Z,16.70
2018-07-23T04:28:01.153Z,16.70
2018-07-23T04:30:29.342Z,16.70
2018-07-23T04:35:25.453Z,16.90
2018-07-23T04:37:53.852Z,16.90
2018-07-23T04:40:22.449Z,16.90
2018-07-23T04:42:50.789Z,17.00
2018-07-23T04:45:19.117Z,17.00
2018-07-23T04:47:47.401Z,16.90
2018-07-23T04:50:15.523Z,16.90
2018-07-23T04:52:44.507Z,16.90
2018-07-23T04:55:12.668Z,16.90
2018-07-23T04:57:40.782Z,17.00
2018-07-23T05:00:08.936Z,16.90
2018-07-23T05:02:37.071Z,17.00
2018-07-23T05:07:34.020Z,17.00
2018-07-23T05:10:02.360Z,17.00
2018-07-23T05:12:30.486Z,17.00
2018-07-23T05:14:58.614Z,17.00
2018-07-23T05:17:26.742Z,17.00
2018-07-23T05:19:54.881Z,17.00
2018-07-23T05:22:23.084Z,17.00
2018-07-23T05:24:51.191Z,16.90
2018-07-23T05:27:19.618Z,17.00
2018-07-23T05:29:47.761Z,17.00
2018-07-23T05:32:16.081Z,17.00
2018-07-23T05:34:44.402Z,17.00
2018-07-23T05:37:12.638Z,17.10
2018-07-23T05:42:08.910Z,17.10
2018-07-23T05:44:37.386Z,17.10
2018-07-23T05:47:05.648Z,17.10
2018-07-23T05:49:34.510Z,17.20
2018-07-23T05:52:02.663Z,17.20
2018-07-23T05:54:31.034Z,17.30
2018-07-23T05:56:59.147Z,17.40
2018-07-23T05:59:27.560Z,17.40
2018-07-23T06:01:55.750Z,17.40
2018-07-23T06:04:24.122Z,17.50
2018-07-23T06:06:52.576Z,17.50
2018-07-23T06:09:20.573Z,17.60
2018-07-23T06:11:48.782Z,17.70
2018-07-23T06:14:16.930Z,17.80
2018-07-23T06:16:45.072Z,17.90
2018-07-23T06:19:13.224Z,17.90
2018-07-23T06:21:41.389Z,18.00
2018-07-23T06:26:37.430Z,17.90
2018-07-23T06:29:05.585Z,18.00
2018-07-23T06:31:33.679Z,18.00
2018-07-23T06:34:01.809Z,18.00
2018-07-23T06:36:30.065Z,18.10
2018-07-23T06:38:58.203Z,18.20
2018-07-23T06:41:26.348Z,18.20
2018-07-23T06:43:54.441Z,18.20
2018-07-23T06:46:22.551Z,18.20
2018-07-23T06:48:50.672Z,18.30
2018-07-23T06:51:18.799Z,18.30
2018-07-23T06:53:46.922Z,18.30
2018-07-23T06:56:15.041Z,18.40
2018-07-23T06:58:43.135Z,18.40
2018-07-23T07:01:11.205Z,18.40
2018-07-23T07:03:39.322Z,18.40
2018-07-23T07:06:07.399Z,18.50
2018-07-23T07:08:35.478Z,18.50
2018-07-23T07:11:03.691Z,18.40
2018-07-23T07:13:31.890Z,18.40
2018-07-23T07:18:27.866Z,18.50
2018-07-23T07:20:56.034Z,18.60
2018-07-23T07:23:24.224Z,18.60
2018-07-23T07:25:52.440Z,18.70
2018-07-23T07:28:20.472Z,18.70
2018-07-23T07:33:16.385Z,18.70
2018-07-23T07:35:44.452Z,18.80
2018-07-23T07:38:12.580Z,18.90
2018-07-23T07:40:40.928Z,18.90
2018-07-23T07:45:37.075Z,19.10
2018-07-23T07:50:32.968Z,19.30
2018-07-23T07:53:01.025Z,19.50
2018-07-23T07:55:29.123Z,19.60
2018-07-23T07:57:57.218Z,19.80
2018-07-23T08:00:25.285Z,19.90
2018-07-23T08:02:53.418Z,20.10
2018-07-23T08:05:21.544Z,20.40
2018-07-23T08:07:49.603Z,20.60
2018-07-23T08:10:17.741Z,20.80
2018-07-23T08:12:45.798Z,20.90
2018-07-23T08:15:14.006Z,21.10
2018-07-23T08:17:42.153Z,21.30
2018-07-23T08:20:10.497Z,21.50
2018-07-23T08:25:06.569Z,21.70
2018-07-23T08:27:34.692Z,21.70
2018-07-23T08:30:02.851Z,21.70
2018-07-23T08:32:31.069Z,21.80
2018-07-23T08:37:27.279Z,21.90
2018-07-23T08:39:55.477Z,21.90
2018-07-23T08:42:23.637Z,21.90
2018-07-23T08:44:51.816Z,21.80
2018-07-23T08:47:19.939Z,21.80
2018-07-23T08:49:48.105Z,21.80
2018-07-23T08:52:16.295Z,21.70
2018-07-23T08:54:44.493Z,21.70
2018-07-23T08:57:12.726Z,21.80
2018-07-23T08:59:40.808Z,21.70
2018-07-23T09:02:08.929Z,21.80
2018-07-23T09:04:37.122Z,21.70
2018-07-23T09:07:05.280Z,21.70
2018-07-23T09:09:33.365Z,21.70
2018-07-23T09:12:01.522Z,21.80
2018-07-23T09:16:57.571Z,21.80
2018-07-23T09:19:25.689Z,21.80
2018-07-23T09:21:53.901Z,21.80
2018-07-23T09:24:22.148Z,21.90
2018-07-23T09:26:50.358Z,22.10
2018-07-23T09:29:18.500Z,22.00
2018-07-23T09:31:46.641Z,22.20
2018-07-23T09:34:14.823Z,22.20
2018-07-23T09:36:43.030Z,22.10
2018-07-23T09:39:11.328Z,22.10
2018-07-23T09:41:40.158Z,22.00
2018-07-23T09:46:36.239Z,21.60
2018-07-23T09:49:04.415Z,21.50
2018-07-23T09:51:32.528Z,21.40
2018-07-23T09:54:00.743Z,21.20
2018-07-23T09:56:28.811Z,21.10
2018-07-23T09:58:57.039Z,21.20
2018-07-23T10:01:25.138Z,21.20
2018-07-23T10:03:53.226Z,21.00
2018-07-23T10:06:21.419Z,20.80
2018-07-23T10:08:49.588Z,20.50
2018-07-23T10:11:17.680Z,20.30
2018-07-23T10:13:45.820Z,20.10
2018-07-23T10:16:13.923Z,20.10
2018-07-23T10:18:42.076Z,20.00
2018-07-23T10:21:10.186Z,19.90
2018-07-23T10:23:38.315Z,20.00
2018-07-23T10:26:06.451Z,20.00
2018-07-23T10:28:35.243Z,20.00
2018-07-23T10:31:03.359Z,20.10
2018-07-23T10:33:31.518Z,20.30
2018-07-23T10:35:59.633Z,20.40
2018-07-23T10:38:27.787Z,20.50
2018-07-23T10:40:55.980Z,20.50
2018-07-23T10:43:24.126Z,20.40
2018-07-23T10:45:52.321Z,20.40
2018-07-23T10:48:20.433Z,20.40
2018-07-23T10:50:48.541Z,20.40
2018-07-23T10:53:16.610Z,20.40
2018-07-23T10:55:44.836Z,20.40
2018-07-23T10:58:13.080Z,20.40
2018-07-23T11:00:41.195Z,20.50
2018-07-23T11:03:09.335Z,20.50
2018-07-23T11:05:37.483Z,20.50
2018-07-23T11:08:05.651Z,20.40
2018-07-23T11:10:33.835Z,20.50
2018-07-23T11:13:01.986Z,20.50
2018-07-23T11:15:30.218Z,20.60
2018-07-23T11:17:58.368Z,20.60
2018-07-23T11:20:26.513Z,20.70
2018-07-23T11:22:54.663Z,20.80
2018-07-23T11:25:38.977Z,20.80
2018-07-23T11:27:50.876Z,20.90
2018-07-23T11:30:18.985Z,21.00
2018-07-23T11:32:47.095Z,21.10
2018-07-23T11:35:15.276Z,21.20
2018-07-23T11:37:43.457Z,21.20
2018-07-23T11:40:11.559Z,21.20
2018-07-23T11:42:39.775Z,21.20
2018-07-23T11:47:35.825Z,21.40
2018-07-23T11:50:04.183Z,21.40
2018-07-23T11:52:32.314Z,21.50
2018-07-23T11:55:00.415Z,21.70
2018-07-23T11:57:28.644Z,21.70
2018-07-23T11:59:56.780Z,21.60
2018-07-23T12:02:24.969Z,21.60
2018-07-23T12:04:53.088Z,21.80
2018-07-23T12:07:21.201Z,21.80
2018-07-23T12:09:49.466Z,21.80
2018-07-23T12:14:45.515Z,21.70
2018-07-23T12:17:13.646Z,21.60
2018-07-23T12:19:42.045Z,21.70
2018-07-23T12:22:10.155Z,21.70
2018-07-23T12:24:38.264Z,21.70
2018-07-23T12:27:06.324Z,21.70
2018-07-23T12:29:34.389Z,21.60
2018-07-23T12:32:02.502Z,21.70
2018-07-23T12:34:30.929Z,21.80
2018-07-23T12:36:59.108Z,21.80
2018-07-23T12:41:55.135Z,21.70
2018-07-23T12:46:51.149Z,21.60
2018-07-23T12:49:19.251Z,21.50
2018-07-23T12:51:47.366Z,21.40
2018-07-23T12:54:15.441Z,21.30
2018-07-23T12:56:43.729Z,21.10
2018-07-23T12:59:11.823Z,20.90
2018-07-23T13:01:40.029Z,20.90
2018-07-23T13:06:36.378Z,20.80
2018-07-23T13:11:34.413Z,20.80
2018-07-23T13:14:02.538Z,20.80
2018-07-23T13:16:30.628Z,20.80
2018-07-23T13:18:58.768Z,20.90
2018-07-23T13:21:26.865Z,20.90
2018-07-23T13:26:23.092Z,20.70
2018-07-23T13:28:51.481Z,20.80
2018-07-23T13:31:19.651Z,20.90
2018-07-23T13:33:47.876Z,20.90
2018-07-23T13:36:16.211Z,20.90
2018-07-23T13:38:44.383Z,20.80
2018-07-23T13:43:40.520Z,20.70
2018-07-23T13:46:08.671Z,20.70
2018-07-23T13:51:04.802Z,20.70
2018-07-23T13:53:33.018Z,20.70
2018-07-23T13:56:01.146Z,20.90
2018-07-23T13:58:29.700Z,20.90
2018-07-23T14:00:57.852Z,21.00
2018-07-23T14:03:25.992Z,21.20
2018-07-23T14:05:54.166Z,21.40
2018-07-23T14:08:22.412Z,21.80
2018-07-23T14:10:50.622Z,22.20
2018-07-23T14:13:18.809Z,22.40
2018-07-23T14:15:47.794Z,22.50
2018-07-23T14:18:17.684Z,22.70
2018-07-23T14:20:45.979Z,22.90
2018-07-23T14:23:14.440Z,23.10
2018-07-23T14:25:42.894Z,23.30
2018-07-23T14:28:11.100Z,23.40
2018-07-23T14:30:39.336Z,23.80
2018-07-23T14:33:07.522Z,23.90
2018-07-23T14:35:37.352Z,24.10
2018-07-23T14:38:06.152Z,24.10
2018-07-23T14:40:34.437Z,24.20
2018-07-23T14:43:02.730Z,24.40
2018-07-23T14:45:31.135Z,24.30
2018-07-23T14:50:29.339Z,23.80
2018-07-23T14:52:58.012Z,23.90
2018-07-23T14:57:55.622Z,24.00
2018-07-23T15:00:24.344Z,24.10
2018-07-23T15:02:53.020Z,24.00
2018-07-23T15:05:21.796Z,24.00
2018-07-23T15:07:50.437Z,24.10
2018-07-23T15:10:19.002Z,24.30
2018-07-23T15:12:48.220Z,24.50
2018-07-23T15:15:16.879Z,24.60
2018-07-23T15:17:47.527Z,24.70
2018-07-23T15:20:15.916Z,24.80
2018-07-23T15:22:45.285Z,24.80
2018-07-23T15:25:13.553Z,24.80
2018-07-23T15:27:44.001Z,24.80
2018-07-23T15:30:12.527Z,24.70
2018-07-23T15:32:40.873Z,24.70
2018-07-23T15:35:09.233Z,24.80
2018-07-23T15:37:37.511Z,24.80
2018-07-23T15:42:34.152Z,24.80
2018-07-23T15:45:02.782Z,24.80
2018-07-23T15:47:31.315Z,24.80
2018-07-23T15:50:00.893Z,24.70
2018-07-23T15:52:29.536Z,24.70
2018-07-23T15:54:58.718Z,24.70
2018-07-23T15:57:27.066Z,24.70
2018-07-23T15:59:55.646Z,24.70
2018-07-23T16:02:24.035Z,24.60
2018-07-23T16:04:52.611Z,24.70
2018-07-23T16:07:22.497Z,24.70
2018-07-23T16:09:51.131Z,24.70
2018-07-23T16:12:19.683Z,24.70
2018-07-23T16:14:48.288Z,24.80
2018-07-23T16:17:16.742Z,24.80
2018-07-23T16:19:45.261Z,24.70
2018-07-23T16:22:13.986Z,24.70
2018-07-23T16:24:43.456Z,24.70
2018-07-23T16:27:11.865Z,24.70
2018-07-23T16:32:07.939Z,24.80
2018-07-23T16:34:36.128Z,24.70
2018-07-23T16:37:04.517Z,24.60
2018-07-23T16:39:34.163Z,24.60
2018-07-23T16:42:02.578Z,24.60
2018-07-23T16:44:31.784Z,24.50
2018-07-23T16:47:00.262Z,24.50
2018-07-23T16:49:29.818Z,24.50
2018-07-23T16:51:58.586Z,24.40
2018-07-23T16:54:27.369Z,24.50
2018-07-23T16:56:55.817Z,24.50
2018-07-23T16:59:24.321Z,24.40
2018-07-23T17:01:53.851Z,24.40
2018-07-23T17:04:22.791Z,24.40
2018-07-23T17:06:51.225Z,24.40
2018-07-23T17:09:19.749Z,24.30
2018-07-23T17:11:48.512Z,24.30
2018-07-23T17:14:18.179Z,24.20
2018-07-23T17:16:46.476Z,24.20
2018-07-23T17:19:14.826Z,24.10
2018-07-23T17:21:43.097Z,24.00
2018-07-23T17:24:11.338Z,24.00
2018-07-23T17:26:40.246Z,23.90
2018-07-23T17:29:08.779Z,23.80
2018-07-23T17:31:37.446Z,23.80
2018-07-23T17:34:06.202Z,23.80
2018-07-23T17:36:34.805Z,23.70
2018-07-23T17:39:03.394Z,23.60
2018-07-23T17:41:32.081Z,23.60
2018-07-23T17:44:00.691Z,23.50
2018-07-23T17:46:29.491Z,23.30
2018-07-23T17:48:58.013Z,23.30
2018-07-23T17:51:26.609Z,23.20
2018-07-23T17:53:55.285Z,23.10
2018-07-23T17:56:23.687Z,22.90
2018-07-23T17:58:51.971Z,22.90
2018-07-23T18:01:20.352Z,22.70
2018-07-23T18:03:48.973Z,22.70
2018-07-23T18:06:17.597Z,22.50
2018-07-23T18:08:46.196Z,22.40
2018-07-23T18:11:14.701Z,22.40
2018-07-23T18:13:43.345Z,22.30
2018-07-23T18:16:12.166Z,22.20
2018-07-23T18:18:40.960Z,22.10
2018-07-23T18:21:09.203Z,22.10
2018-07-23T18:23:37.403Z,22.00
2018-07-23T18:26:05.701Z,21.90
2018-07-23T18:28:33.860Z,21.90
2018-07-23T18:31:02.864Z,21.90
2018-07-23T18:33:31.090Z,21.80
2018-07-23T18:38:27.503Z,21.80
2018-07-23T18:40:55.619Z,21.70
2018-07-23T18:43:23.786Z,21.70
2018-07-23T18:45:51.957Z,21.70
2018-07-23T18:49:31.379Z,21.70
2018-07-23T18:51:59.549Z,21.80
2018-07-23T18:54:28.911Z,21.70
2018-07-23T18:56:58.155Z,21.60
2018-07-23T18:59:26.367Z,21.50
2018-07-23T19:01:55.481Z,21.40
2018-07-23T19:04:24.804Z,21.30
2018-07-23T19:06:53.022Z,21.10
2018-07-23T19:09:22.402Z,21.00
2018-07-23T19:11:51.876Z,20.90
2018-07-23T19:14:20.258Z,20.90
2018-07-23T19:16:49.294Z,20.80
2018-07-23T19:19:17.855Z,20.70
2018-07-23T19:21:46.156Z,20.60
2018-07-23T19:24:14.354Z,20.50
2018-07-23T19:26:42.665Z,20.40
2018-07-23T19:29:11.513Z,20.30
2018-07-23T19:31:40.684Z,20.20
2018-07-23T19:34:08.890Z,20.20
2018-07-23T19:36:37.104Z,20.10
2018-07-23T19:39:12.036Z,19.90
2018-07-23T19:41:40.210Z,19.70
2018-07-23T19:44:08.762Z,19.70
2018-07-23T19:46:37.018Z,19.60
2018-07-23T19:49:05.350Z,19.60
2018-07-23T19:51:33.830Z,19.50
2018-07-23T19:54:02.365Z,19.40
2018-07-23T19:56:30.581Z,19.40
2018-07-23T19:58:58.774Z,19.30
2018-07-23T20:01:26.895Z,19.30
2018-07-23T20:03:56.157Z,19.20
2018-07-23T20:06:25.488Z,19.10
2018-07-23T20:08:54.637Z,19.00
2018-07-23T20:11:23.853Z,19.00
2018-07-23T20:13:52.057Z,18.90
2018-07-23T20:16:20.335Z,18.80
2018-07-23T20:18:48.835Z,18.70
2018-07-23T20:21:16.996Z,18.70
2018-07-23T20:23:45.392Z,18.60
2018-07-23T20:26:13.732Z,18.50
2018-07-23T20:28:41.929Z,18.50
2018-07-23T20:33:37.988Z,18.30
2018-07-23T20:38:34.718Z,18.30
2018-07-23T20:41:03.043Z,18.20
2018-07-23T20:43:31.845Z,18.20
2018-07-23T20:46:00.481Z,18.20
2018-07-23T20:48:28.733Z,18.20
2018-07-23T20:50:57.294Z,18.20
2018-07-23T20:53:25.488Z,18.10
2018-07-23T20:55:53.822Z,18.10
2018-07-23T20:58:22.524Z,18.20
2018-07-23T21:00:50.710Z,18.10
2018-07-23T21:03:18.917Z,18.10
2018-07-23T21:05:47.147Z,18.10
2018-07-23T21:08:15.303Z,18.10
2018-07-23T21:10:43.525Z,18.00
2018-07-23T21:13:11.770Z,18.00
2018-07-23T21:15:39.938Z,18.00
2018-07-23T21:18:08.539Z,18.00
2018-07-23T21:20:37.439Z,18.00
2018-07-23T21:23:06.118Z,18.10
2018-07-23T21:25:34.418Z,18.20
2018-07-23T21:28:02.562Z,18.20
2018-07-23T21:30:30.753Z,18.10
2018-07-23T21:32:58.912Z,18.10
2018-07-23T21:35:27.111Z,18.10
2018-07-23T21:37:55.347Z,18.00
2018-07-23T21:40:23.520Z,17.90
2018-07-23T21:42:51.877Z,18.00
2018-07-23T21:45:20.058Z,18.00
2018-07-23T21:50:16.280Z,17.90
2018-07-23T21:52:44.447Z,18.00
2018-07-23T21:55:12.723Z,18.00
2018-07-23T21:57:41.886Z,17.80
2018-07-23T22:00:12.953Z,17.90
2018-07-23T22:02:41.139Z,17.90
2018-07-23T22:05:09.437Z,18.00
2018-07-23T22:07:37.961Z,18.10
2018-07-23T22:10:06.962Z,18.20
2018-07-23T22:12:35.278Z,18.20
2018-07-23T22:15:05.033Z,18.30
2018-07-23T22:17:33.308Z,18.40
2018-07-23T22:20:01.506Z,18.50
2018-07-23T22:22:29.735Z,18.50
2018-07-23T22:24:57.994Z,18.60
2018-07-23T22:27:26.172Z,18.70
2018-07-23T22:29:54.369Z,18.70
2018-07-23T22:34:50.521Z,18.70
2018-07-23T22:37:18.855Z,18.70
2018-07-23T22:39:47.045Z,18.70
2018-07-23T22:42:15.321Z,18.60
2018-07-23T22:44:46.991Z,18.60
2018-07-23T22:47:15.175Z,18.50
2018-07-23T22:52:11.282Z,18.50
2018-07-23T22:54:39.430Z,18.50
2018-07-23T22:57:07.738Z,18.70
2018-07-23T22:59:35.929Z,18.60
2018-07-23T23:02:04.348Z,18.70
2018-07-23T23:04:32.505Z,18.70
2018-07-23T23:07:00.665Z,18.90
2018-07-23T23:09:28.778Z,19.00
2018-07-23T23:11:56.946Z,19.20
2018-07-23T23:14:25.217Z,19.40
2018-07-23T23:16:53.431Z,19.50
2018-07-23T23:19:21.580Z,19.60
2018-07-23T23:21:49.705Z,19.70
2018-07-23T23:24:17.908Z,19.70
2018-07-23T23:26:46.129Z,19.80
2018-07-23T23:29:14.293Z,19.80
2018-07-23T23:31:42.549Z,20.00
2018-07-23T23:34:10.747Z,20.00
2018-07-23T23:36:38.923Z,20.00
2018-07-23T23:39:09.253Z,20.00
2018-07-23T23:41:37.551Z,19.90
2018-07-23T23:46:33.793Z,19.90
2018-07-23T23:49:01.991Z,19.90
2018-07-23T23:51:30.703Z,19.90
2018-07-23T23:53:59.363Z,19.80
2018-07-23T23:56:27.515Z,19.80
2018-07-23T23:58:55.816Z,19.90
